createdAt,value
2022-12-25T00:00:30.828Z,95104.34
2022-12-25T00:02:59.156Z,95101.44
2022-12-25T00:05:25.772Z,95108.50
2022-12-25T00:07:52.393Z,95111.75
2022-12-25T00:10:19.002Z,95106.88
2022-12-25T00:12:45.560Z,95105.66
2022-12-25T00:15:12.092Z,95110.31
2022-12-25T00:17:38.646Z,95108.09
2022-12-25T00:20:08.339Z,95107.56
2022-12-25T00:22:34.772Z,95111.03
2022-12-25T00:25:01.361Z,95109.75
2022-12-25T00:27:27.896Z,95098.38
2022-12-25T00:29:54.437Z,95105.66
2022-12-25T00:32:20.974Z,95108.31
2022-12-25T00:34:47.811Z,95106.91
2022-12-25T00:37:15.704Z,95115.19
2022-12-25T00:39:42.233Z,95106.47
2022-12-25T00:42:18.907Z,95103.44
2022-12-25T00:44:45.520Z,95103.44
2022-12-25T00:47:12.139Z,95113.97
2022-12-25T00:49:38.710Z,95111.75
2022-12-25T00:52:05.406Z,95110.94
2022-12-25T00:54:33.577Z,95105.28
2022-12-25T00:57:00.229Z,95107.31
2022-12-25T00:59:26.878Z,95101.19
2022-12-25T01:01:53.453Z,95111.75
2022-12-25T01:04:20.083Z,95103.22
2022-12-25T01:06:46.589Z,95107.31
2022-12-25T01:09:31.560Z,95101.03
2022-12-25T01:11:59.429Z,95108.59
2022-12-25T01:14:25.946Z,95111.22
2022-12-25T01:16:52.578Z,95109.59
2022-12-25T01:19:19.118Z,95100.47
2022-12-25T01:21:45.608Z,95092.50
2022-12-25T01:24:12.291Z,95092.91
2022-12-25T01:26:38.955Z,95082.16
2022-12-25T01:29:06.789Z,95082.97
2022-12-25T01:31:33.350Z,95090.06
2022-12-25T01:33:59.940Z,95086.69
2022-12-25T01:36:26.789Z,95088.06
2022-12-25T01:38:54.397Z,95090.06
2022-12-25T01:41:23.793Z,95088.66
2022-12-25T01:44:01.404Z,95086.22
2022-12-25T01:46:29.798Z,95092.31
2022-12-25T01:48:58.758Z,95081.88
2022-12-25T01:51:29.648Z,95078.22
2022-12-25T01:53:59.480Z,95068.63
2022-12-25T01:56:28.903Z,95071.03
2022-12-25T01:58:57.168Z,95065.16
2022-12-25T02:01:23.913Z,95061.88
2022-12-25T02:03:56.750Z,95064.31
2022-12-25T02:06:23.331Z,95059.88
2022-12-25T02:08:50.144Z,95058.44
2022-12-25T02:11:36.655Z,95051.34
2022-12-25T02:14:03.409Z,95043.88
2022-12-25T02:16:35.490Z,95043.53
2022-12-25T02:19:38.096Z,95040.56
2022-12-25T02:22:15.786Z,95041.00
2022-12-25T02:24:57.353Z,95036.69
2022-12-25T02:27:37.722Z,95034.59
2022-12-25T02:30:08.589Z,95033.59
2022-12-25T02:32:42.851Z,95032.38
2022-12-25T02:35:15.287Z,95026.06
2022-12-25T02:37:49.612Z,95017.72
2022-12-25T02:40:19.451Z,95022.31
2022-12-25T02:43:11.089Z,95021.97
2022-12-25T02:46:02.889Z,95026.53
2022-12-25T02:48:52.237Z,95026.09
2022-12-25T02:51:39.897Z,95028.13
2022-12-25T02:54:30.732Z,95030.53
2022-12-25T02:57:18.172Z,95026.06
2022-12-25T03:00:07.283Z,95024.66
2022-12-25T03:02:54.480Z,95040.00
2022-12-25T03:05:43.607Z,95028.41
2022-12-25T03:08:17.900Z,95032.28
2022-12-25T03:11:08.664Z,95036.94
2022-12-25T03:13:41.083Z,95027.19
2022-12-25T03:16:26.582Z,95027.81
2022-12-25T03:18:56.892Z,95028.94
2022-12-25T03:21:42.077Z,95035.72
2022-12-25T03:24:27.323Z,95029.66
2022-12-25T03:26:56.983Z,95021.09
2022-12-25T03:29:42.565Z,95024.09
2022-12-25T03:32:22.310Z,95019.00
2022-12-25T03:35:11.741Z,95018.38
2022-12-25T03:38:09.277Z,95019.00
2022-12-25T03:41:08.246Z,95005.63
2022-12-25T03:44:00.127Z,95016.28
2022-12-25T03:46:50.939Z,95014.88
2022-12-25T03:49:43.769Z,95011.63
2022-12-25T03:52:33.090Z,95004.94
2022-12-25T03:55:22.908Z,95000.66
2022-12-25T03:58:15.921Z,94997.22
2022-12-25T04:01:01.330Z,94998.47
2022-12-25T04:03:46.703Z,95004.09
2022-12-25T04:06:31.895Z,94999.69
2022-12-25T04:09:18.583Z,94997.28
2022-12-25T04:12:03.864Z,95004.28
2022-12-25T04:14:49.380Z,94999.28
2022-12-25T04:17:34.608Z,94991.19
2022-12-25T04:20:19.949Z,94987.28
2022-12-25T04:23:25.071Z,94990.56
2022-12-25T04:26:11.685Z,94996.41
2022-12-25T04:28:56.776Z,94991.91
2022-12-25T04:31:42.145Z,94998.72
2022-12-25T04:34:27.293Z,94985.31
2022-12-25T04:36:53.819Z,94989.31
2022-12-25T04:39:20.338Z,94987.84
2022-12-25T04:41:48.193Z,94985.13
2022-12-25T04:44:14.691Z,94989.16
2022-12-25T04:46:41.238Z,94991.34
2022-12-25T04:49:07.752Z,94983.34
2022-12-25T04:51:34.280Z,94988.16
2022-12-25T04:54:00.811Z,95003.19
2022-12-25T04:56:27.341Z,95007.59
2022-12-25T04:58:55.993Z,95011.00
2022-12-25T05:01:22.930Z,95015.63
2022-12-25T05:03:49.708Z,95016.06
2022-12-25T05:06:16.280Z,95010.03
2022-12-25T05:08:42.837Z,95008.56
2022-12-25T05:11:10.964Z,95022.91
2022-12-25T05:13:38.009Z,95021.72
2022-12-25T05:16:07.659Z,95023.97
2022-12-25T05:18:34.408Z,95027.41
2022-12-25T05:21:01.275Z,95034.50
2022-12-25T05:23:27.846Z,95035.53
2022-12-25T05:25:54.372Z,95036.75
2022-12-25T05:28:20.987Z,95036.94
2022-12-25T05:30:47.548Z,95038.94
2022-12-25T05:33:15.559Z,95029.84
2022-12-25T05:35:42.134Z,95034.72
2022-12-25T05:38:08.721Z,95037.34
2022-12-25T05:40:39.867Z,95038.94
2022-12-25T05:43:06.592Z,95039.78
2022-12-25T05:45:33.173Z,95031.25
2022-12-25T05:47:59.790Z,95033.84
2022-12-25T05:50:27.725Z,95030.88
2022-12-25T05:52:54.297Z,95034.69
2022-12-25T05:55:20.841Z,95033.91
2022-12-25T05:57:47.405Z,95025.81
2022-12-25T06:00:14.476Z,95035.09
2022-12-25T06:02:41.162Z,95026.34
2022-12-25T06:05:08.443Z,95023.94
2022-12-25T06:07:36.313Z,95019.94
2022-12-25T06:10:02.931Z,95028.84
2022-12-25T06:12:29.451Z,95023.94
2022-12-25T06:14:55.953Z,95020.34
2022-12-25T06:17:25.719Z,95015.06
2022-12-25T06:19:52.161Z,95013.22
2022-12-25T06:22:18.701Z,95010.97
2022-12-25T06:24:46.711Z,95007.00
2022-12-25T06:27:13.297Z,95009.03
2022-12-25T06:29:39.862Z,95010.47
2022-12-25T06:32:06.495Z,94997.88
2022-12-25T06:34:33.043Z,95000.28
2022-12-25T06:36:59.541Z,94998.22
2022-12-25T06:39:26.136Z,94995.78
2022-12-25T06:41:54.009Z,94989.50
2022-12-25T06:44:20.534Z,94987.28
2022-12-25T06:46:47.033Z,94994.38
2022-12-25T06:49:13.541Z,94990.72
2022-12-25T06:51:40.071Z,94983.63
2022-12-25T06:54:06.648Z,94985.03
2022-12-25T06:56:33.870Z,94977.13
2022-12-25T06:59:03.883Z,94981.31
2022-12-25T07:01:34.064Z,94987.59
2022-12-25T07:04:03.169Z,94994.78
2022-12-25T07:06:29.807Z,94997.31
2022-12-25T07:08:56.376Z,94985.13
2022-12-25T07:11:23.330Z,94991.00
2022-12-25T07:13:50.216Z,94983.88
2022-12-25T07:16:18.653Z,94984.88
2022-12-25T07:18:45.225Z,94982.69
2022-12-25T07:21:13.492Z,94986.94
2022-12-25T07:23:40.812Z,94988.53
2022-12-25T07:26:09.171Z,94987.72
2022-12-25T07:28:35.672Z,94987.91
2022-12-25T07:31:03.520Z,94980.44
2022-12-25T07:33:32.082Z,94992.41
2022-12-25T07:35:58.652Z,94990.00
2022-12-25T07:38:25.603Z,94980.06
2022-12-25T07:40:52.266Z,94994.34
2022-12-25T07:43:18.873Z,94977.28
2022-12-25T07:45:45.478Z,94993.84
2022-12-25T07:48:16.425Z,94984.31
2022-12-25T07:50:44.792Z,94989.81
2022-12-25T07:53:11.297Z,94992.03
2022-12-25T07:55:37.801Z,94982.41
2022-12-25T07:58:04.383Z,94979.13
2022-12-25T08:00:33.907Z,94967.94
2022-12-25T08:03:00.819Z,94972.56
2022-12-25T08:05:27.532Z,94975.81
2022-12-25T08:07:58.053Z,94980.28
2022-12-25T08:10:24.930Z,94966.88
2022-12-25T08:12:52.012Z,94964.59
2022-12-25T08:15:18.712Z,94971.41
2022-12-25T08:17:45.233Z,94957.47
2022-12-25T08:20:12.391Z,94962.34
2022-12-25T08:22:38.996Z,94969.88
2022-12-25T08:25:07.698Z,94973.06
2022-12-25T08:27:34.430Z,94966.19
2022-12-25T08:30:01.037Z,94962.97
2022-12-25T08:32:27.587Z,94972.47
2022-12-25T08:34:54.128Z,94979.06
2022-12-25T08:37:20.679Z,94981.63
2022-12-25T08:39:47.249Z,94979.69
2022-12-25T08:42:15.311Z,94976.38
2022-12-25T08:44:41.929Z,94972.06
2022-12-25T08:47:08.534Z,94969.06
2022-12-25T08:49:35.073Z,94969.31
2022-12-25T08:52:01.733Z,94967.38
2022-12-25T08:54:28.284Z,94951.13
2022-12-25T08:57:02.137Z,94955.38
2022-12-25T08:59:30.720Z,94955.72
2022-12-25T09:01:57.417Z,94956.09
2022-12-25T09:04:24.023Z,94963.66
2022-12-25T09:06:51.110Z,94959.31
2022-12-25T09:09:17.647Z,94961.31
2022-12-25T09:11:44.283Z,94961.59
2022-12-25T09:14:13.517Z,94952.44
2022-12-25T09:16:41.452Z,94955.97
2022-12-25T09:19:07.986Z,94958.81
2022-12-25T09:21:36.637Z,94948.19
2022-12-25T09:24:03.544Z,94948.00
2022-12-25T09:26:30.071Z,94948.63
2022-12-25T09:28:56.608Z,94939.53
2022-12-25T09:31:23.720Z,94939.03
2022-12-25T09:33:51.822Z,94926.44
2022-12-25T09:36:18.667Z,94933.59
2022-12-25T09:38:45.217Z,94913.66
2022-12-25T09:41:17.079Z,94911.59
2022-12-25T09:43:48.422Z,94921.13
2022-12-25T09:46:19.889Z,94919.66
2022-12-25T09:48:58.936Z,94911.63
2022-12-25T09:51:27.661Z,94922.25
2022-12-25T09:54:00.624Z,94919.34
2022-12-25T09:56:27.238Z,94911.31
2022-12-25T09:58:54.494Z,94903.88
2022-12-25T10:01:29.555Z,94894.94
2022-12-25T10:04:12.645Z,94893.41
2022-12-25T10:06:50.561Z,94894.19
2022-12-25T10:09:29.420Z,94892.41
2022-12-25T10:12:12.694Z,94896.91
2022-12-25T10:14:46.651Z,94885.84
2022-12-25T10:17:30.842Z,94874.88
2022-12-25T10:20:09.917Z,94875.94
2022-12-25T10:22:42.208Z,94874.47
2022-12-25T10:25:17.682Z,94879.13
2022-12-25T10:27:45.059Z,94871.03
2022-12-25T10:30:16.026Z,94884.38
2022-12-25T10:32:44.095Z,94884.88
2022-12-25T10:35:14.303Z,94899.16
2022-12-25T10:37:41.472Z,94877.84
2022-12-25T10:40:27.780Z,94883.59
2022-12-25T10:43:01.035Z,94874.19
2022-12-25T10:45:27.614Z,94860.88
2022-12-25T10:48:07.508Z,94853.91
2022-12-25T10:50:43.351Z,94866.25
2022-12-25T10:53:19.295Z,94859.72
2022-12-25T10:55:57.880Z,94855.97
2022-12-25T10:58:24.875Z,94868.69
2022-12-25T11:00:54.290Z,94856.16
2022-12-25T11:03:23.408Z,94859.59
2022-12-25T11:05:51.806Z,94847.84
2022-12-25T11:08:21.713Z,94846.84
2022-12-25T11:10:53.457Z,94842.03
2022-12-25T11:13:24.368Z,94833.03
2022-12-25T11:16:01.679Z,94846.75
2022-12-25T11:18:32.292Z,94832.94
2022-12-25T11:21:02.854Z,94834.16
2022-12-25T11:23:31.642Z,94831.34
2022-12-25T11:26:00.753Z,94826.44
2022-12-25T11:28:29.386Z,94828.56
2022-12-25T11:31:00.481Z,94822.75
2022-12-25T11:33:31.527Z,94814.66
2022-12-25T11:36:02.951Z,94811.50
2022-12-25T11:38:29.957Z,94811.34
2022-12-25T11:41:00.533Z,94805.31
2022-12-25T11:43:33.219Z,94797.13
2022-12-25T11:46:13.112Z,94792.34
2022-12-25T11:48:44.069Z,94787.56
2022-12-25T11:51:15.162Z,94784.84
2022-12-25T11:53:46.012Z,94794.63
2022-12-25T11:56:17.260Z,94795.03
2022-12-25T11:58:46.208Z,94799.84
2022-12-25T12:01:19.110Z,94786.75
2022-12-25T12:03:45.783Z,94787.03
2022-12-25T12:06:23.148Z,94780.34
2022-12-25T12:08:53.797Z,94784.53
2022-12-25T12:11:28.397Z,94783.66
2022-12-25T12:14:06.937Z,94785.28
2022-12-25T12:16:34.907Z,94771.84
2022-12-25T12:19:11.032Z,94772.88
2022-12-25T12:21:39.552Z,94772.91
2022-12-25T12:24:11.667Z,94765.16
2022-12-25T12:26:42.397Z,94764.97
2022-12-25T12:29:23.324Z,94775.16
2022-12-25T12:31:52.050Z,94764.69
2022-12-25T12:34:23.522Z,94753.84
2022-12-25T12:36:54.398Z,94754.03
2022-12-25T12:39:25.600Z,94746.81
2022-12-25T12:41:52.897Z,94748.06
2022-12-25T12:44:22.754Z,94753.31
2022-12-25T12:46:54.893Z,94748.59
2022-12-25T12:49:24.458Z,94752.50
2022-12-25T12:52:03.138Z,94749.00
2022-12-25T12:54:29.657Z,94742.91
2022-12-25T12:57:00.891Z,94745.75
2022-12-25T12:59:36.892Z,94744.22
2022-12-25T13:02:18.113Z,94745.78
2022-12-25T13:04:55.961Z,94745.63
2022-12-25T13:07:45.072Z,94741.97
2022-12-25T13:10:25.101Z,94754.88
2022-12-25T13:12:54.824Z,94748.16
2022-12-25T13:15:22.937Z,94753.13
2022-12-25T13:17:50.048Z,94754.59
2022-12-25T13:20:22.978Z,94753.56
2022-12-25T13:22:53.056Z,94750.97
2022-12-25T13:25:21.794Z,94747.91
2022-12-25T13:27:55.690Z,94743.22
2022-12-25T13:30:23.833Z,94738.47
2022-12-25T13:32:50.557Z,94729.59
2022-12-25T13:35:18.594Z,94719.88
2022-12-25T13:37:45.622Z,94713.66
2022-12-25T13:40:21.944Z,94713.78
2022-12-25T13:42:49.965Z,94704.09
2022-12-25T13:45:24.036Z,94701.34
2022-12-25T13:47:55.432Z,94707.91
2022-12-25T13:50:24.719Z,94697.22
2022-12-25T13:52:52.552Z,94702.38
2022-12-25T13:55:22.491Z,94709.28
2022-12-25T13:57:52.481Z,94721.81
2022-12-25T14:00:21.989Z,94720.56
2022-12-25T14:02:49.115Z,94724.94
2022-12-25T14:05:28.415Z,94732.41
2022-12-25T14:07:56.993Z,94733.66
2022-12-25T14:10:29.154Z,94736.31
2022-12-25T14:12:59.402Z,94739.19
2022-12-25T14:15:30.384Z,94734.34
2022-12-25T14:17:57.976Z,94737.13
2022-12-25T14:20:26.531Z,94741.94
2022-12-25T14:22:55.463Z,94734.81
2022-12-25T14:25:31.540Z,94740.09
2022-12-25T14:27:58.289Z,94739.97
2022-12-25T14:30:28.410Z,94732.50
2022-12-25T14:32:55.884Z,94729.66
2022-12-25T14:35:23.999Z,94728.22
2022-12-25T14:37:54.703Z,94741.31
2022-12-25T14:40:25.718Z,94751.78
2022-12-25T14:42:58.067Z,94755.84
2022-12-25T14:45:30.624Z,94752.97
2022-12-25T14:47:59.091Z,94750.34
2022-12-25T14:50:28.053Z,94756.75
2022-12-25T14:52:55.278Z,94755.56
2022-12-25T14:55:23.864Z,94758.72
2022-12-25T14:57:53.334Z,94757.13
2022-12-25T15:00:28.477Z,94763.00
2022-12-25T15:02:57.458Z,94767.38
2022-12-25T15:05:27.957Z,94766.09
2022-12-25T15:08:20.814Z,94763.25
2022-12-25T15:11:03.956Z,94762.78
2022-12-25T15:13:31.764Z,94754.16
2022-12-25T15:16:04.119Z,94747.03
2022-12-25T15:18:34.012Z,94748.19
2022-12-25T15:21:00.437Z,94749.69
2022-12-25T15:23:26.968Z,94757.84
2022-12-25T15:25:53.653Z,94760.09
2022-12-25T15:28:20.710Z,94753.81
2022-12-25T15:30:47.652Z,94753.97
2022-12-25T15:33:17.478Z,94759.16
2022-12-25T15:35:44.635Z,94762.72
2022-12-25T15:38:11.842Z,94758.59
2022-12-25T15:40:39.061Z,94764.25
2022-12-25T15:43:11.467Z,94765.03
2022-12-25T15:45:47.448Z,94771.72
2022-12-25T15:48:14.001Z,94781.31
2022-12-25T15:50:42.243Z,94767.84
2022-12-25T15:53:10.343Z,94777.63
2022-12-25T15:55:37.010Z,94772.59
2022-12-25T15:58:03.523Z,94774.72
2022-12-25T16:00:30.451Z,94772.69
2022-12-25T16:02:57.216Z,94765.44
2022-12-25T16:05:23.953Z,94771.25
2022-12-25T16:07:51.859Z,94768.78
2022-12-25T16:10:20.099Z,94772.41
2022-12-25T16:12:47.153Z,94773.06
2022-12-25T16:15:15.037Z,94768.97
2022-12-25T16:17:41.925Z,94763.88
2022-12-25T16:20:09.503Z,94763.16
2022-12-25T16:22:39.881Z,94773.75
2022-12-25T16:25:13.413Z,94760.53
2022-12-25T16:27:39.969Z,94766.69
2022-12-25T16:30:07.672Z,94770.84
2022-12-25T16:32:34.187Z,94759.44
2022-12-25T16:35:00.692Z,94764.88
2022-12-25T16:37:27.622Z,94762.38
2022-12-25T16:39:54.140Z,94759.44
2022-12-25T16:42:22.079Z,94760.47
2022-12-25T16:44:48.577Z,94765.34
2022-12-25T16:47:15.289Z,94777.88
2022-12-25T16:49:41.837Z,94764.75
2022-12-25T16:52:08.362Z,94775.53
2022-12-25T16:54:34.907Z,94772.44
2022-12-25T16:57:01.428Z,94777.34
2022-12-25T16:59:29.741Z,94785.59
2022-12-25T17:01:56.459Z,94780.81
2022-12-25T17:04:23.147Z,94773.59
2022-12-25T17:06:49.717Z,94789.16
2022-12-25T17:09:16.425Z,94791.50
2022-12-25T17:11:43.025Z,94790.59
2022-12-25T17:14:10.598Z,94789.31
2022-12-25T17:16:38.710Z,94795.97
2022-12-25T17:19:12.088Z,94799.91
2022-12-25T17:21:38.771Z,94791.34
2022-12-25T17:24:06.224Z,94804.69
2022-12-25T17:26:33.504Z,94801.50
2022-12-25T17:29:00.303Z,94806.00
2022-12-25T17:31:27.455Z,94811.13
2022-12-25T17:33:55.468Z,94805.13
2022-12-25T17:36:22.137Z,94813.03
2022-12-25T17:38:49.589Z,94810.97
2022-12-25T17:41:18.158Z,94814.66
2022-12-25T17:43:45.799Z,94823.00
2022-12-25T17:46:15.335Z,94819.50
2022-12-25T17:48:42.220Z,94825.88
2022-12-25T17:51:12.232Z,94834.06
2022-12-25T17:53:40.361Z,94847.28
2022-12-25T17:56:08.157Z,94840.97
2022-12-25T17:58:34.732Z,94840.72
2022-12-25T18:01:06.145Z,94844.91
2022-12-25T18:03:33.179Z,94839.78
2022-12-25T18:06:00.139Z,94835.44
2022-12-25T18:08:32.459Z,94829.97
2022-12-25T18:11:02.775Z,94832.38
2022-12-25T18:13:29.577Z,94844.91
2022-12-25T18:15:56.177Z,94849.59
2022-12-25T18:18:22.877Z,94839.78
2022-12-25T18:20:49.389Z,94845.78
2022-12-25T18:23:15.924Z,94855.31
2022-12-25T18:25:43.817Z,94835.53
2022-12-25T18:28:10.499Z,94847.06
2022-12-25T18:30:38.881Z,94851.56
2022-12-25T18:33:05.469Z,94855.00
2022-12-25T18:35:32.107Z,94847.69
2022-12-25T18:37:58.745Z,94840.50
2022-12-25T18:40:25.269Z,94856.50
2022-12-25T18:42:59.360Z,94848.94
2022-12-25T18:45:29.385Z,94847.31
2022-12-25T18:47:55.980Z,94852.47
2022-12-25T18:50:22.509Z,94854.63
2022-12-25T18:52:51.567Z,94863.16
2022-12-25T18:55:19.944Z,94858.97
2022-12-25T18:57:46.491Z,94858.28
2022-12-25T19:00:14.887Z,94857.59
2022-12-25T19:02:41.869Z,94865.72
2022-12-25T19:05:08.999Z,94871.88
2022-12-25T19:07:36.136Z,94870.81
2022-12-25T19:10:04.130Z,94875.81
2022-12-25T19:12:30.680Z,94881.75
2022-12-25T19:14:57.364Z,94877.66
2022-12-25T19:17:31.300Z,94880.16
2022-12-25T19:19:58.570Z,94882.97
2022-12-25T19:22:26.449Z,94881.72
2022-12-25T19:24:53.009Z,94884.31
2022-12-25T19:27:19.645Z,94884.00
2022-12-25T19:29:46.283Z,94905.19
2022-12-25T19:32:12.845Z,94905.09
2022-12-25T19:34:40.730Z,94895.47
2022-12-25T19:37:07.644Z,94910.00
2022-12-25T19:39:34.256Z,94906.31
2022-12-25T19:42:00.860Z,94910.53
2022-12-25T19:44:27.473Z,94901.94
2022-12-25T19:46:54.189Z,94913.72
2022-12-25T19:49:20.799Z,94916.63
2022-12-25T19:51:48.805Z,94920.66
2022-12-25T19:54:18.802Z,94915.09
2022-12-25T19:56:45.888Z,94915.97
2022-12-25T19:59:13.033Z,94914.34
2022-12-25T20:01:39.658Z,94899.56
2022-12-25T20:04:07.972Z,94905.66
2022-12-25T20:06:36.435Z,94913.34
2022-12-25T20:09:07.001Z,94911.25
2022-12-25T20:11:35.054Z,94904.38
2022-12-25T20:14:01.909Z,94902.72
2022-12-25T20:16:28.533Z,94907.50
2022-12-25T20:18:56.490Z,94916.50
2022-12-25T20:21:23.792Z,94917.44
2022-12-25T20:23:52.262Z,94916.56
2022-12-25T20:26:22.798Z,94922.06
2022-12-25T20:28:49.638Z,94924.63
2022-12-25T20:31:18.066Z,94918.38
2022-12-25T20:33:44.819Z,94930.97
2022-12-25T20:36:12.779Z,94942.06
2022-12-25T20:38:39.693Z,94936.19
2022-12-25T20:43:57.043Z,94939.03
2022-12-25T20:46:23.930Z,94938.81
2022-12-25T20:48:51.777Z,94928.88
2022-12-25T20:51:20.162Z,94926.72
2022-12-25T20:53:47.985Z,94927.22
2022-12-25T20:56:17.159Z,94935.19
2022-12-25T20:58:44.059Z,94914.09
2022-12-25T21:01:14.993Z,94915.91
2022-12-25T21:03:41.938Z,94923.63
2022-12-25T21:06:09.165Z,94920.16
2022-12-25T21:08:36.660Z,94929.59
2022-12-25T21:11:04.899Z,94927.47
2022-12-25T21:13:34.412Z,94927.13
2022-12-25T21:16:01.085Z,94932.78
2022-12-25T21:18:29.107Z,94924.19
2022-12-25T21:20:58.415Z,94926.13
2022-12-25T21:23:28.473Z,94923.16
2022-12-25T21:25:55.087Z,94924.69
2022-12-25T21:28:22.819Z,94922.06
2022-12-25T21:30:49.507Z,94917.22
2022-12-25T21:33:35.264Z,94925.50
2022-12-25T21:36:07.395Z,94928.25
2022-12-25T21:38:34.464Z,94932.47
2022-12-25T21:41:05.604Z,94922.31
2022-12-25T21:43:32.813Z,94935.69
2022-12-25T21:46:01.565Z,94933.44
2022-12-25T21:48:28.154Z,94937.91
2022-12-25T21:51:13.240Z,94947.91
2022-12-25T21:53:41.274Z,94951.34
2022-12-25T21:56:07.848Z,94945.31
2022-12-25T21:58:34.358Z,94956.00
2022-12-25T22:01:02.919Z,94938.66
2022-12-25T22:03:29.569Z,94944.91
2022-12-25T22:06:21.125Z,94951.81
2022-12-25T22:08:49.774Z,94958.47
2022-12-25T22:11:34.988Z,94963.09
2022-12-25T22:14:20.232Z,94962.91
2022-12-25T22:17:25.708Z,94960.84
2022-12-25T22:19:52.306Z,94957.03
2022-12-25T22:22:21.118Z,94956.38
2022-12-25T22:24:49.788Z,94967.53
2022-12-25T22:27:16.816Z,94962.50
2022-12-25T22:29:43.733Z,94953.19
2022-12-25T22:32:11.147Z,94960.22
2022-12-25T22:34:38.225Z,94961.66
2022-12-25T22:37:06.257Z,94958.44
2022-12-25T22:39:33.780Z,94958.44
2022-12-25T22:42:02.075Z,94965.31
2022-12-25T22:44:30.793Z,94969.78
2022-12-25T22:46:57.525Z,94964.53
2022-12-25T22:49:24.721Z,94971.91
2022-12-25T22:51:52.059Z,94975.06
2022-12-25T22:54:19.936Z,94969.59
2022-12-25T22:56:49.046Z,94977.22
2022-12-25T22:59:20.640Z,94971.63
2022-12-25T23:01:47.428Z,94970.59
2022-12-25T23:04:14.073Z,94967.81
2022-12-25T23:06:40.703Z,94967.03
2022-12-25T23:09:09.018Z,94956.84
2022-12-25T23:11:36.024Z,94965.72
2022-12-25T23:14:21.301Z,94963.34
2022-12-25T23:16:49.274Z,94955.03
2022-12-25T23:19:34.936Z,94952.59
2022-12-25T23:22:20.298Z,94946.94
2022-12-25T23:25:05.659Z,94953.00
2022-12-25T23:27:32.228Z,94947.63
2022-12-25T23:29:58.792Z,94950.97
2022-12-25T23:32:28.043Z,94948.16
2022-12-25T23:34:55.854Z,94952.78
2022-12-25T23:37:22.760Z,94952.00
2022-12-25T23:39:50.142Z,94951.56
2022-12-25T23:42:17.331Z,94949.97
2022-12-25T23:44:44.156Z,94955.44
2022-12-25T23:47:11.080Z,94966.41
2022-12-25T23:49:39.863Z,94957.06
2022-12-25T23:52:06.451Z,94959.47
2022-12-25T23:54:33.632Z,94953.59
2022-12-25T23:57:00.446Z,94957.84
2022-12-25T23:59:28.794Z,94967.97
